sensor_id;sensor_type;location;lat;lon;timestamp;P1;durP1;ratioP1;P2;durP2;ratioP2
16320;SDS011;8269;50.990;4.494;2023-08-31T00:02:09;3.40;;;1.60;;
16320;SDS011;8269;50.990;4.494;2023-08-31T00:04:35;3.17;;;1.57;;
16320;SDS011;8269;50.990;4.494;2023-08-31T00:07:01;2.63;;;1.63;;
16320;SDS011;8269;50.990;4.494;2023-08-31T00:09:26;2.73;;;1.57;;
16320;SDS011;8269;50.990;4.494;2023-08-31T00:11:52;3.03;;;1.50;;
16320;SDS011;8269;50.990;4.494;2023-08-31T00:14:18;2.70;;;1.60;;
16320;SDS011;8269;50.990;4.494;2023-08-31T00:16:43;1.98;;;1.38;;
16320;SDS011;8269;50.990;4.494;2023-08-31T00:19:13;2.00;;;1.50;;
16320;SDS011;8269;50.990;4.494;2023-08-31T00:21:39;3.53;;;1.73;;
16320;SDS011;8269;50.990;4.494;2023-08-31T00:24:05;3.00;;;1.63;;
16320;SDS011;8269;50.990;4.494;2023-08-31T00:26:32;3.37;;;1.90;;
16320;SDS011;8269;50.990;4.494;2023-08-31T00:28:58;4.60;;;1.80;;
16320;SDS011;8269;50.990;4.494;2023-08-31T00:31:24;3.30;;;1.90;;
16320;SDS011;8269;50.990;4.494;2023-08-31T00:33:50;2.75;;;1.70;;
16320;SDS011;8269;50.990;4.494;2023-08-31T00:36:15;3.17;;;1.95;;
16320;SDS011;8269;50.990;4.494;2023-08-31T00:38:43;3.55;;;2.13;;
16320;SDS011;8269;50.990;4.494;2023-08-31T00:41:09;2.67;;;1.87;;
16320;SDS011;8269;50.990;4.494;2023-08-31T00:43:35;3.30;;;2.22;;
16320;SDS011;8269;50.990;4.494;2023-08-31T00:46:01;4.78;;;2.28;;
16320;SDS011;8269;50.990;4.494;2023-08-31T00:48:27;4.80;;;2.10;;
16320;SDS011;8269;50.990;4.494;2023-08-31T00:50:53;3.80;;;2.20;;
16320;SDS011;8269;50.990;4.494;2023-08-31T00:53:19;4.43;;;2.00;;
16320;SDS011;8269;50.990;4.494;2023-08-31T00:55:45;2.90;;;1.90;;
16320;SDS011;8269;50.990;4.494;2023-08-31T00:58:12;3.67;;;2.03;;
16320;SDS011;8269;50.990;4.494;2023-08-31T01:03:31;4.70;;;2.33;;
16320;SDS011;8269;50.990;4.494;2023-08-31T01:08:57;5.35;;;2.25;;
16320;SDS011;8269;50.990;4.494;2023-08-31T01:11:55;4.47;;;2.60;;
16320;SDS011;8269;50.990;4.494;2023-08-31T01:14:47;3.67;;;2.10;;
16320;SDS011;8269;50.990;4.494;2023-08-31T01:17:24;4.37;;;2.53;;
16320;SDS011;8269;50.990;4.494;2023-08-31T01:19:54;4.93;;;2.30;;
16320;SDS011;8269;50.990;4.494;2023-08-31T01:22:38;3.77;;;2.43;;
16320;SDS011;8269;50.990;4.494;2023-08-31T01:25:21;4.20;;;2.53;;
16320;SDS011;8269;50.990;4.494;2023-08-31T01:27:47;4.43;;;2.60;;
16320;SDS011;8269;50.990;4.494;2023-08-31T01:30:13;4.97;;;2.60;;
16320;SDS011;8269;50.990;4.494;2023-08-31T01:32:43;4.90;;;2.63;;
16320;SDS011;8269;50.990;4.494;2023-08-31T01:35:12;4.03;;;2.83;;
16320;SDS011;8269;50.990;4.494;2023-08-31T01:37:49;4.70;;;2.63;;
16320;SDS011;8269;50.990;4.494;2023-08-31T01:40:26;6.10;;;2.90;;
16320;SDS011;8269;50.990;4.494;2023-08-31T01:43:00;5.93;;;3.10;;
16320;SDS011;8269;50.990;4.494;2023-08-31T01:45:26;4.53;;;2.77;;
16320;SDS011;8269;50.990;4.494;2023-08-31T01:47:52;5.53;;;3.20;;
16320;SDS011;8269;50.990;4.494;2023-08-31T01:50:18;5.20;;;3.40;;
16320;SDS011;8269;50.990;4.494;2023-08-31T01:52:44;6.47;;;3.25;;
16320;SDS011;8269;50.990;4.494;2023-08-31T01:55:09;6.70;;;3.37;;
16320;SDS011;8269;50.990;4.494;2023-08-31T01:57:38;4.77;;;3.47;;
16320;SDS011;8269;50.990;4.494;2023-08-31T02:00:04;4.73;;;2.83;;
16320;SDS011;8269;50.990;4.494;2023-08-31T02:02:31;5.33;;;3.23;;
16320;SDS011;8269;50.990;4.494;2023-08-31T02:04:56;6.85;;;3.78;;
16320;SDS011;8269;50.990;4.494;2023-08-31T02:07:24;5.67;;;3.60;;
16320;SDS011;8269;50.990;4.494;2023-08-31T02:09:49;5.60;;;3.73;;
16320;SDS011;8269;50.990;4.494;2023-08-31T02:12:15;5.95;;;3.53;;
16320;SDS011;8269;50.990;4.494;2023-08-31T02:14:41;5.27;;;3.27;;
16320;SDS011;8269;50.990;4.494;2023-08-31T02:17:06;6.90;;;3.43;;
16320;SDS011;8269;50.990;4.494;2023-08-31T02:19:32;5.07;;;3.43;;
16320;SDS011;8269;50.990;4.494;2023-08-31T02:21:58;6.23;;;3.30;;
16320;SDS011;8269;50.990;4.494;2023-08-31T02:24:23;6.70;;;3.73;;
16320;SDS011;8269;50.990;4.494;2023-08-31T02:26:49;6.83;;;3.90;;
16320;SDS011;8269;50.990;4.494;2023-08-31T02:29:15;5.77;;;3.60;;
16320;SDS011;8269;50.990;4.494;2023-08-31T02:31:41;5.10;;;3.70;;
16320;SDS011;8269;50.990;4.494;2023-08-31T02:34:07;5.20;;;3.53;;
16320;SDS011;8269;50.990;4.494;2023-08-31T02:36:32;6.10;;;3.60;;
16320;SDS011;8269;50.990;4.494;2023-08-31T02:38:59;4.73;;;3.23;;
16320;SDS011;8269;50.990;4.494;2023-08-31T02:41:25;6.73;;;3.40;;
16320;SDS011;8269;50.990;4.494;2023-08-31T02:43:51;5.23;;;3.53;;
16320;SDS011;8269;50.990;4.494;2023-08-31T02:46:17;5.60;;;3.47;;
16320;SDS011;8269;50.990;4.494;2023-08-31T02:48:43;7.80;;;4.40;;
16320;SDS011;8269;50.990;4.494;2023-08-31T02:51:09;6.37;;;3.90;;
16320;SDS011;8269;50.990;4.494;2023-08-31T02:53:35;6.13;;;4.00;;
16320;SDS011;8269;50.990;4.494;2023-08-31T02:56:01;6.43;;;4.13;;
16320;SDS011;8269;50.990;4.494;2023-08-31T02:58:27;7.22;;;4.80;;
16320;SDS011;8269;50.990;4.494;2023-08-31T03:00:52;7.80;;;4.80;;
16320;SDS011;8269;50.990;4.494;2023-08-31T03:03:18;7.07;;;4.40;;
16320;SDS011;8269;50.990;4.494;2023-08-31T03:05:44;6.47;;;4.43;;
16320;SDS011;8269;50.990;4.494;2023-08-31T03:08:10;7.03;;;4.20;;
16320;SDS011;8269;50.990;4.494;2023-08-31T03:10:36;7.03;;;4.47;;
16320;SDS011;8269;50.990;4.494;2023-08-31T03:13:03;6.53;;;4.28;;
16320;SDS011;8269;50.990;4.494;2023-08-31T03:15:29;8.27;;;5.03;;
16320;SDS011;8269;50.990;4.494;2023-08-31T03:17:57;6.30;;;4.23;;
16320;SDS011;8269;50.990;4.494;2023-08-31T03:20:22;6.93;;;4.13;;
16320;SDS011;8269;50.990;4.494;2023-08-31T03:22:48;9.07;;;4.60;;
16320;SDS011;8269;50.990;4.494;2023-08-31T03:25:14;7.35;;;4.25;;
16320;SDS011;8269;50.990;4.494;2023-08-31T03:27:39;7.97;;;3.92;;
16320;SDS011;8269;50.990;4.494;2023-08-31T03:30:05;7.65;;;4.10;;
16320;SDS011;8269;50.990;4.494;2023-08-31T03:32:31;6.93;;;4.75;;
16320;SDS011;8269;50.990;4.494;2023-08-31T03:34:57;7.55;;;4.10;;
16320;SDS011;8269;50.990;4.494;2023-08-31T03:37:22;6.63;;;4.13;;
16320;SDS011;8269;50.990;4.494;2023-08-31T03:39:48;9.15;;;4.60;;
16320;SDS011;8269;50.990;4.494;2023-08-31T03:42:14;6.53;;;4.73;;
16320;SDS011;8269;50.990;4.494;2023-08-31T03:44:39;5.93;;;3.73;;
16320;SDS011;8269;50.990;4.494;2023-08-31T03:47:05;8.32;;;4.60;;
16320;SDS011;8269;50.990;4.494;2023-08-31T03:49:31;6.77;;;4.13;;
16320;SDS011;8269;50.990;4.494;2023-08-31T03:51:57;8.23;;;4.67;;
16320;SDS011;8269;50.990;4.494;2023-08-31T03:54:23;6.97;;;4.30;;
16320;SDS011;8269;50.990;4.494;2023-08-31T03:56:49;6.43;;;4.35;;
16320;SDS011;8269;50.990;4.494;2023-08-31T03:59:14;8.73;;;4.53;;
16320;SDS011;8269;50.990;4.494;2023-08-31T04:01:41;7.50;;;4.67;;
16320;SDS011;8269;50.990;4.494;2023-08-31T04:04:06;7.30;;;4.97;;
16320;SDS011;8269;50.990;4.494;2023-08-31T04:06:33;6.97;;;4.40;;
16320;SDS011;8269;50.990;4.494;2023-08-31T04:08:59;6.43;;;4.67;;
16320;SDS011;8269;50.990;4.494;2023-08-31T04:11:25;7.30;;;4.50;;
16320;SDS011;8269;50.990;4.494;2023-08-31T04:13:51;7.20;;;4.20;;
16320;SDS011;8269;50.990;4.494;2023-08-31T04:16:17;7.33;;;4.07;;
16320;SDS011;8269;50.990;4.494;2023-08-31T04:18:42;7.68;;;4.00;;
16320;SDS011;8269;50.990;4.494;2023-08-31T04:21:10;5.63;;;3.83;;
16320;SDS011;8269;50.990;4.494;2023-08-31T04:23:36;6.27;;;3.70;;
16320;SDS011;8269;50.990;4.494;2023-08-31T04:26:09;5.33;;;3.47;;
16320;SDS011;8269;50.990;4.494;2023-08-31T04:28:36;5.67;;;3.70;;
16320;SDS011;8269;50.990;4.494;2023-08-31T04:31:04;6.03;;;3.47;;
16320;SDS011;8269;50.990;4.494;2023-08-31T04:33:30;5.73;;;3.73;;
16320;SDS011;8269;50.990;4.494;2023-08-31T04:35:56;6.18;;;3.65;;
16320;SDS011;8269;50.990;4.494;2023-08-31T04:38:21;5.57;;;3.20;;
16320;SDS011;8269;50.990;4.494;2023-08-31T04:40:47;5.47;;;3.50;;
16320;SDS011;8269;50.990;4.494;2023-08-31T04:43:13;7.60;;;3.70;;
16320;SDS011;8269;50.990;4.494;2023-08-31T04:45:39;5.83;;;3.90;;
16320;SDS011;8269;50.990;4.494;2023-08-31T04:48:04;6.53;;;4.37;;
16320;SDS011;8269;50.990;4.494;2023-08-31T04:50:30;5.97;;;3.50;;
16320;SDS011;8269;50.990;4.494;2023-08-31T04:52:56;6.70;;;3.83;;
16320;SDS011;8269;50.990;4.494;2023-08-31T04:55:23;5.77;;;3.60;;
16320;SDS011;8269;50.990;4.494;2023-08-31T04:57:48;5.83;;;3.37;;
16320;SDS011;8269;50.990;4.494;2023-08-31T05:00:14;6.63;;;3.50;;
16320;SDS011;8269;50.990;4.494;2023-08-31T05:02:40;5.27;;;3.03;;
16320;SDS011;8269;50.990;4.494;2023-08-31T05:05:06;7.83;;;3.60;;
16320;SDS011;8269;50.990;4.494;2023-08-31T05:07:32;5.77;;;3.47;;
16320;SDS011;8269;50.990;4.494;2023-08-31T05:09:58;6.67;;;3.70;;
16320;SDS011;8269;50.990;4.494;2023-08-31T05:12:24;5.47;;;3.40;;
16320;SDS011;8269;50.990;4.494;2023-08-31T05:14:49;5.97;;;3.13;;
16320;SDS011;8269;50.990;4.494;2023-08-31T05:17:16;6.13;;;3.47;;
16320;SDS011;8269;50.990;4.494;2023-08-31T05:19:42;6.77;;;3.70;;
16320;SDS011;8269;50.990;4.494;2023-08-31T05:22:08;5.87;;;3.67;;
16320;SDS011;8269;50.990;4.494;2023-08-31T05:24:34;6.67;;;3.63;;
16320;SDS011;8269;50.990;4.494;2023-08-31T05:27:03;7.70;;;3.87;;
16320;SDS011;8269;50.990;4.494;2023-08-31T05:29:29;7.25;;;3.90;;
16320;SDS011;8269;50.990;4.494;2023-08-31T05:31:55;6.13;;;3.65;;
16320;SDS011;8269;50.990;4.494;2023-08-31T05:34:21;8.07;;;3.67;;
16320;SDS011;8269;50.990;4.494;2023-08-31T05:36:50;6.25;;;4.00;;
16320;SDS011;8269;50.990;4.494;2023-08-31T05:39:18;6.82;;;4.20;;
16320;SDS011;8269;50.990;4.494;2023-08-31T05:41:44;7.45;;;3.90;;
16320;SDS011;8269;50.990;4.494;2023-08-31T05:44:10;6.77;;;3.43;;
16320;SDS011;8269;50.990;4.494;2023-08-31T05:46:36;5.63;;;3.33;;
16320;SDS011;8269;50.990;4.494;2023-08-31T05:49:03;5.27;;;3.40;;
16320;SDS011;8269;50.990;4.494;2023-08-31T05:51:29;6.10;;;3.40;;
16320;SDS011;8269;50.990;4.494;2023-08-31T05:53:55;6.57;;;3.57;;
16320;SDS011;8269;50.990;4.494;2023-08-31T05:56:21;5.20;;;3.33;;
16320;SDS011;8269;50.990;4.494;2023-08-31T05:58:46;4.53;;;2.63;;
16320;SDS011;8269;50.990;4.494;2023-08-31T06:01:12;7.05;;;3.40;;
16320;SDS011;8269;50.990;4.494;2023-08-31T06:03:38;6.43;;;2.97;;
16320;SDS011;8269;50.990;4.494;2023-08-31T06:06:03;6.60;;;2.78;;
16320;SDS011;8269;50.990;4.494;2023-08-31T06:08:29;5.60;;;2.42;;
16320;SDS011;8269;50.990;4.494;2023-08-31T06:10:55;4.68;;;2.63;;
16320;SDS011;8269;50.990;4.494;2023-08-31T06:13:21;5.30;;;3.05;;
16320;SDS011;8269;50.990;4.494;2023-08-31T06:15:49;5.13;;;2.90;;
16320;SDS011;8269;50.990;4.494;2023-08-31T06:18:16;4.68;;;2.50;;
16320;SDS011;8269;50.990;4.494;2023-08-31T06:20:42;5.50;;;2.88;;
16320;SDS011;8269;50.990;4.494;2023-08-31T06:23:09;5.90;;;2.40;;
16320;SDS011;8269;50.990;4.494;2023-08-31T06:25:36;4.28;;;2.58;;
16320;SDS011;8269;50.990;4.494;2023-08-31T06:28:02;5.70;;;2.15;;
16320;SDS011;8269;50.990;4.494;2023-08-31T06:30:30;3.70;;;2.03;;
16320;SDS011;8269;50.990;4.494;2023-08-31T06:32:56;6.00;;;2.55;;
16320;SDS011;8269;50.990;4.494;2023-08-31T06:35:22;4.28;;;2.10;;
16320;SDS011;8269;50.990;4.494;2023-08-31T06:37:48;4.55;;;2.20;;
16320;SDS011;8269;50.990;4.494;2023-08-31T06:40:15;5.80;;;2.08;;
16320;SDS011;8269;50.990;4.494;2023-08-31T06:42:42;3.85;;;2.10;;
16320;SDS011;8269;50.990;4.494;2023-08-31T06:45:08;5.40;;;2.58;;
16320;SDS011;8269;50.990;4.494;2023-08-31T06:47:34;4.20;;;1.95;;
16320;SDS011;8269;50.990;4.494;2023-08-31T06:50:00;5.25;;;1.83;;
16320;SDS011;8269;50.990;4.494;2023-08-31T06:52:26;5.15;;;2.22;;
16320;SDS011;8269;50.990;4.494;2023-08-31T06:54:52;4.95;;;1.83;;
16320;SDS011;8269;50.990;4.494;2023-08-31T06:57:22;5.80;;;2.17;;
16320;SDS011;8269;50.990;4.494;2023-08-31T06:59:51;4.25;;;1.88;;
16320;SDS011;8269;50.990;4.494;2023-08-31T07:02:17;3.53;;;2.10;;
16320;SDS011;8269;50.990;4.494;2023-08-31T07:04:44;5.38;;;2.20;;
16320;SDS011;8269;50.990;4.494;2023-08-31T07:07:10;4.13;;;1.98;;
16320;SDS011;8269;50.990;4.494;2023-08-31T07:09:39;3.63;;;1.80;;
16320;SDS011;8269;50.990;4.494;2023-08-31T07:12:09;6.93;;;2.25;;
16320;SDS011;8269;50.990;4.494;2023-08-31T07:14:35;4.60;;;2.22;;
16320;SDS011;8269;50.990;4.494;2023-08-31T07:17:00;3.13;;;2.00;;
16320;SDS011;8269;50.990;4.494;2023-08-31T07:19:26;4.07;;;1.67;;
16320;SDS011;8269;50.990;4.494;2023-08-31T07:21:52;3.60;;;2.42;;
16320;SDS011;8269;50.990;4.494;2023-08-31T07:24:20;4.88;;;1.90;;
16320;SDS011;8269;50.990;4.494;2023-08-31T07:26:46;4.22;;;1.88;;
16320;SDS011;8269;50.990;4.494;2023-08-31T07:29:12;4.60;;;2.05;;
16320;SDS011;8269;50.990;4.494;2023-08-31T07:31:39;4.55;;;1.92;;
16320;SDS011;8269;50.990;4.494;2023-08-31T07:34:05;4.95;;;2.33;;
16320;SDS011;8269;50.990;4.494;2023-08-31T07:36:31;3.90;;;2.10;;
16320;SDS011;8269;50.990;4.494;2023-08-31T07:38:57;4.80;;;1.98;;
16320;SDS011;8269;50.990;4.494;2023-08-31T07:41:22;3.20;;;1.88;;
16320;SDS011;8269;50.990;4.494;2023-08-31T07:43:48;3.70;;;2.03;;
16320;SDS011;8269;50.990;4.494;2023-08-31T07:46:14;2.42;;;1.83;;
16320;SDS011;8269;50.990;4.494;2023-08-31T07:48:42;3.63;;;1.80;;
16320;SDS011;8269;50.990;4.494;2023-08-31T07:51:07;5.40;;;1.80;;
16320;SDS011;8269;50.990;4.494;2023-08-31T07:53:33;4.43;;;2.08;;
16320;SDS011;8269;50.990;4.494;2023-08-31T07:55:59;4.13;;;1.88;;
16320;SDS011;8269;50.990;4.494;2023-08-31T07:58:25;4.32;;;2.17;;
16320;SDS011;8269;50.990;4.494;2023-08-31T08:00:54;5.63;;;2.47;;
16320;SDS011;8269;50.990;4.494;2023-08-31T08:03:21;7.70;;;2.30;;
16320;SDS011;8269;50.990;4.494;2023-08-31T08:05:47;4.45;;;2.03;;
16320;SDS011;8269;50.990;4.494;2023-08-31T08:08:13;3.67;;;1.90;;
16320;SDS011;8269;50.990;4.494;2023-08-31T08:10:38;5.05;;;2.78;;
16320;SDS011;8269;50.990;4.494;2023-08-31T08:13:04;5.15;;;2.08;;
16320;SDS011;8269;50.990;4.494;2023-08-31T08:15:30;3.72;;;2.03;;
16320;SDS011;8269;50.990;4.494;2023-08-31T08:17:56;2.85;;;1.83;;
16320;SDS011;8269;50.990;4.494;2023-08-31T08:20:24;3.92;;;2.00;;
16320;SDS011;8269;50.990;4.494;2023-08-31T08:22:50;4.45;;;2.30;;
16320;SDS011;8269;50.990;4.494;2023-08-31T08:25:36;6.05;;;2.42;;
16320;SDS011;8269;50.990;4.494;2023-08-31T08:28:01;5.32;;;2.72;;
16320;SDS011;8269;50.990;4.494;2023-08-31T08:30:29;6.13;;;2.40;;
16320;SDS011;8269;50.990;4.494;2023-08-31T08:32:59;4.63;;;2.30;;
16320;SDS011;8269;50.990;4.494;2023-08-31T08:35:25;4.93;;;2.38;;
16320;SDS011;8269;50.990;4.494;2023-08-31T08:37:51;4.38;;;1.80;;
16320;SDS011;8269;50.990;4.494;2023-08-31T08:40:17;3.83;;;2.20;;
16320;SDS011;8269;50.990;4.494;2023-08-31T08:42:43;5.25;;;2.50;;
16320;SDS011;8269;50.990;4.494;2023-08-31T08:45:15;7.22;;;2.60;;
16320;SDS011;8269;50.990;4.494;2023-08-31T08:47:44;4.07;;;2.40;;
16320;SDS011;8269;50.990;4.494;2023-08-31T08:50:11;4.38;;;2.60;;
16320;SDS011;8269;50.990;4.494;2023-08-31T08:52:40;5.07;;;2.65;;
16320;SDS011;8269;50.990;4.494;2023-08-31T08:55:07;6.47;;;3.00;;
16320;SDS011;8269;50.990;4.494;2023-08-31T08:57:34;4.68;;;2.40;;
16320;SDS011;8269;50.990;4.494;2023-08-31T09:00:00;3.17;;;1.95;;
16320;SDS011;8269;50.990;4.494;2023-08-31T09:02:26;3.90;;;2.25;;
16320;SDS011;8269;50.990;4.494;2023-08-31T09:04:52;3.97;;;2.40;;
16320;SDS011;8269;50.990;4.494;2023-08-31T09:07:20;3.97;;;2.25;;
16320;SDS011;8269;50.990;4.494;2023-08-31T09:09:50;7.13;;;2.50;;
16320;SDS011;8269;50.990;4.494;2023-08-31T09:12:18;5.25;;;2.35;;
16320;SDS011;8269;50.990;4.494;2023-08-31T09:15:01;3.90;;;2.30;;
16320;SDS011;8269;50.990;4.494;2023-08-31T09:17:41;3.63;;;2.15;;
16320;SDS011;8269;50.990;4.494;2023-08-31T09:20:09;5.15;;;2.25;;
16320;SDS011;8269;50.990;4.494;2023-08-31T09:22:36;3.53;;;2.10;;
16320;SDS011;8269;50.990;4.494;2023-08-31T09:25:02;5.68;;;2.65;;
16320;SDS011;8269;50.990;4.494;2023-08-31T09:27:30;4.50;;;2.17;;
16320;SDS011;8269;50.990;4.494;2023-08-31T09:30:02;4.63;;;2.38;;
16320;SDS011;8269;50.990;4.494;2023-08-31T09:32:29;6.00;;;2.40;;
16320;SDS011;8269;50.990;4.494;2023-08-31T09:34:54;5.03;;;2.40;;
16320;SDS011;8269;50.990;4.494;2023-08-31T09:37:20;4.03;;;2.25;;
16320;SDS011;8269;50.990;4.494;2023-08-31T09:39:46;4.85;;;2.22;;
16320;SDS011;8269;50.990;4.494;2023-08-31T09:42:12;3.83;;;2.33;;
16320;SDS011;8269;50.990;4.494;2023-08-31T09:44:44;4.03;;;2.78;;
16320;SDS011;8269;50.990;4.494;2023-08-31T09:47:12;5.53;;;2.50;;
16320;SDS011;8269;50.990;4.494;2023-08-31T09:49:39;4.40;;;2.63;;
16320;SDS011;8269;50.990;4.494;2023-08-31T09:52:08;3.90;;;2.50;;
16320;SDS011;8269;50.990;4.494;2023-08-31T09:54:35;4.63;;;2.50;;
16320;SDS011;8269;50.990;4.494;2023-08-31T09:57:01;3.83;;;2.35;;
16320;SDS011;8269;50.990;4.494;2023-08-31T09:59:27;5.53;;;2.47;;
16320;SDS011;8269;50.990;4.494;2023-08-31T10:01:54;5.63;;;2.42;;
16320;SDS011;8269;50.990;4.494;2023-08-31T10:04:26;6.53;;;2.33;;
16320;SDS011;8269;50.990;4.494;2023-08-31T10:06:54;3.53;;;2.05;;
16320;SDS011;8269;50.990;4.494;2023-08-31T10:09:20;4.95;;;2.30;;
16320;SDS011;8269;50.990;4.494;2023-08-31T10:11:46;4.13;;;2.20;;
16320;SDS011;8269;50.990;4.494;2023-08-31T10:14:12;3.95;;;1.90;;
16320;SDS011;8269;50.990;4.494;2023-08-31T10:16:39;5.00;;;2.40;;
16320;SDS011;8269;50.990;4.494;2023-08-31T10:19:06;4.22;;;1.90;;
16320;SDS011;8269;50.990;4.494;2023-08-31T10:21:33;4.13;;;1.92;;
16320;SDS011;8269;50.990;4.494;2023-08-31T10:23:58;4.00;;;2.00;;
16320;SDS011;8269;50.990;4.494;2023-08-31T10:26:28;4.93;;;1.85;;
16320;SDS011;8269;50.990;4.494;2023-08-31T10:28:56;2.70;;;1.70;;
16320;SDS011;8269;50.990;4.494;2023-08-31T10:31:23;4.20;;;1.73;;
16320;SDS011;8269;50.990;4.494;2023-08-31T10:33:59;4.05;;;1.77;;
16320;SDS011;8269;50.990;4.494;2023-08-31T10:36:38;4.18;;;2.33;;
16320;SDS011;8269;50.990;4.494;2023-08-31T10:39:06;4.45;;;1.75;;
16320;SDS011;8269;50.990;4.494;2023-08-31T10:41:36;4.03;;;1.85;;
16320;SDS011;8269;50.990;4.494;2023-08-31T10:44:02;4.20;;;1.98;;
16320;SDS011;8269;50.990;4.494;2023-08-31T10:46:46;3.90;;;1.63;;
16320;SDS011;8269;50.990;4.494;2023-08-31T10:49:13;5.07;;;1.90;;
16320;SDS011;8269;50.990;4.494;2023-08-31T10:51:40;3.50;;;1.70;;
16320;SDS011;8269;50.990;4.494;2023-08-31T10:54:30;2.80;;;1.50;;
16320;SDS011;8269;50.990;4.494;2023-08-31T10:59:27;3.75;;;1.50;;
16320;SDS011;8269;50.990;4.494;2023-08-31T11:02:07;2.60;;;1.40;;
16320;SDS011;8269;50.990;4.494;2023-08-31T11:04:51;2.72;;;1.48;;
16320;SDS011;8269;50.990;4.494;2023-08-31T11:07:19;2.15;;;1.40;;
16320;SDS011;8269;50.990;4.494;2023-08-31T11:09:49;3.78;;;1.52;;
16320;SDS011;8269;50.990;4.494;2023-08-31T11:12:15;2.75;;;1.50;;
16320;SDS011;8269;50.990;4.494;2023-08-31T11:14:41;3.97;;;2.08;;
16320;SDS011;8269;50.990;4.494;2023-08-31T11:17:07;2.13;;;1.40;;
16320;SDS011;8269;50.990;4.494;2023-08-31T11:19:34;2.95;;;1.73;;
16320;SDS011;8269;50.990;4.494;2023-08-31T11:22:01;3.63;;;1.80;;
16320;SDS011;8269;50.990;4.494;2023-08-31T11:24:31;3.40;;;1.98;;
16320;SDS011;8269;50.990;4.494;2023-08-31T11:26:58;6.30;;;1.88;;
16320;SDS011;8269;50.990;4.494;2023-08-31T11:29:24;3.50;;;1.77;;
16320;SDS011;8269;50.990;4.494;2023-08-31T11:31:50;2.90;;;1.55;;
16320;SDS011;8269;50.990;4.494;2023-08-31T11:34:17;3.28;;;1.60;;
16320;SDS011;8269;50.990;4.494;2023-08-31T11:36:45;4.28;;;1.95;;
16320;SDS011;8269;50.990;4.494;2023-08-31T11:39:12;2.03;;;1.50;;
16320;SDS011;8269;50.990;4.494;2023-08-31T11:41:42;3.45;;;1.42;;
16320;SDS011;8269;50.990;4.494;2023-08-31T11:44:12;3.03;;;1.90;;
16320;SDS011;8269;50.990;4.494;2023-08-31T11:46:49;2.85;;;1.90;;
16320;SDS011;8269;50.990;4.494;2023-08-31T11:49:19;2.90;;;1.42;;
16320;SDS011;8269;50.990;4.494;2023-08-31T11:51:47;2.70;;;1.77;;
16320;SDS011;8269;50.990;4.494;2023-08-31T11:54:16;2.85;;;1.45;;
16320;SDS011;8269;50.990;4.494;2023-08-31T11:56:42;4.35;;;2.58;;
16320;SDS011;8269;50.990;4.494;2023-08-31T11:59:17;4.70;;;2.42;;
16320;SDS011;8269;50.990;4.494;2023-08-31T12:01:45;2.85;;;1.42;;
16320;SDS011;8269;50.990;4.494;2023-08-31T12:04:13;4.35;;;1.45;;
16320;SDS011;8269;50.990;4.494;2023-08-31T12:06:48;3.80;;;2.00;;
16320;SDS011;8269;50.990;4.494;2023-08-31T12:09:16;2.22;;;1.35;;
16320;SDS011;8269;50.990;4.494;2023-08-31T12:11:51;4.78;;;1.98;;
16320;SDS011;8269;50.990;4.494;2023-08-31T12:14:25;2.97;;;1.88;;
16320;SDS011;8269;50.990;4.494;2023-08-31T12:16:52;2.95;;;1.27;;
16320;SDS011;8269;50.990;4.494;2023-08-31T12:19:28;2.28;;;1.20;;
16320;SDS011;8269;50.990;4.494;2023-08-31T12:21:56;3.42;;;1.65;;
16320;SDS011;8269;50.990;4.494;2023-08-31T12:24:22;3.05;;;1.40;;
16320;SDS011;8269;50.990;4.494;2023-08-31T12:26:50;1.77;;;1.20;;
16320;SDS011;8269;50.990;4.494;2023-08-31T12:29:16;2.90;;;1.20;;
16320;SDS011;8269;50.990;4.494;2023-08-31T12:31:42;3.47;;;1.30;;
16320;SDS011;8269;50.990;4.494;2023-08-31T12:34:09;3.70;;;1.10;;
16320;SDS011;8269;50.990;4.494;2023-08-31T12:36:35;1.75;;;0.93;;
16320;SDS011;8269;50.990;4.494;2023-08-31T12:39:03;1.80;;;1.13;;
16320;SDS011;8269;50.990;4.494;2023-08-31T12:41:32;1.70;;;1.13;;
16320;SDS011;8269;50.990;4.494;2023-08-31T12:44:02;2.00;;;1.05;;
16320;SDS011;8269;50.990;4.494;2023-08-31T12:46:30;2.00;;;1.20;;
16320;SDS011;8269;50.990;4.494;2023-08-31T12:48:59;3.85;;;1.05;;
16320;SDS011;8269;50.990;4.494;2023-08-31T12:51:28;2.55;;;1.17;;
16320;SDS011;8269;50.990;4.494;2023-08-31T12:53:54;2.55;;;1.10;;
16320;SDS011;8269;50.990;4.494;2023-08-31T12:56:21;2.08;;;1.02;;
16320;SDS011;8269;50.990;4.494;2023-08-31T12:58:56;3.95;;;1.40;;
16320;SDS011;8269;50.990;4.494;2023-08-31T13:01:41;3.42;;;1.20;;
16320;SDS011;8269;50.990;4.494;2023-08-31T13:04:07;1.98;;;0.90;;
16320;SDS011;8269;50.990;4.494;2023-08-31T13:06:34;3.42;;;1.33;;
16320;SDS011;8269;50.990;4.494;2023-08-31T13:09:02;3.17;;;1.48;;
16320;SDS011;8269;50.990;4.494;2023-08-31T13:11:30;4.50;;;1.48;;
16320;SDS011;8269;50.990;4.494;2023-08-31T13:13:56;2.85;;;1.17;;
16320;SDS011;8269;50.990;4.494;2023-08-31T13:16:21;2.20;;;1.30;;
16320;SDS011;8269;50.990;4.494;2023-08-31T13:18:49;3.17;;;1.55;;
16320;SDS011;8269;50.990;4.494;2023-08-31T13:21:15;2.42;;;1.20;;
16320;SDS011;8269;50.990;4.494;2023-08-31T13:23:42;2.13;;;1.30;;
16320;SDS011;8269;50.990;4.494;2023-08-31T13:26:10;4.47;;;1.40;;
16320;SDS011;8269;50.990;4.494;2023-08-31T13:28:37;3.80;;;1.40;;
16320;SDS011;8269;50.990;4.494;2023-08-31T13:31:03;3.53;;;1.58;;
16320;SDS011;8269;50.990;4.494;2023-08-31T13:33:28;2.03;;;1.10;;
16320;SDS011;8269;50.990;4.494;2023-08-31T13:35:57;1.90;;;1.15;;
16320;SDS011;8269;50.990;4.494;2023-08-31T13:38:24;2.78;;;1.20;;
16320;SDS011;8269;50.990;4.494;2023-08-31T13:40:53;1.95;;;0.93;;
16320;SDS011;8269;50.990;4.494;2023-08-31T13:43:24;2.40;;;1.17;;
16320;SDS011;8269;50.990;4.494;2023-08-31T13:45:54;1.17;;;1.00;;
16320;SDS011;8269;50.990;4.494;2023-08-31T13:48:20;3.67;;;1.20;;
16320;SDS011;8269;50.990;4.494;2023-08-31T13:50:47;2.60;;;1.20;;
16320;SDS011;8269;50.990;4.494;2023-08-31T13:53:13;3.53;;;1.23;;
16320;SDS011;8269;50.990;4.494;2023-08-31T13:55:40;1.95;;;1.10;;
16320;SDS011;8269;50.990;4.494;2023-08-31T13:58:06;3.03;;;1.60;;
16320;SDS011;8269;50.990;4.494;2023-08-31T14:00:34;4.15;;;1.25;;
16320;SDS011;8269;50.990;4.494;2023-08-31T14:03:00;3.72;;;1.00;;
16320;SDS011;8269;50.990;4.494;2023-08-31T14:05:30;2.38;;;1.00;;
16320;SDS011;8269;50.990;4.494;2023-08-31T14:07:57;3.88;;;1.30;;
16320;SDS011;8269;50.990;4.494;2023-08-31T14:10:29;2.75;;;1.20;;
16320;SDS011;8269;50.990;4.494;2023-08-31T14:12:56;2.40;;;1.30;;
16320;SDS011;8269;50.990;4.494;2023-08-31T14:15:22;1.63;;;1.05;;
16320;SDS011;8269;50.990;4.494;2023-08-31T14:17:52;1.77;;;1.27;;
16320;SDS011;8269;50.990;4.494;2023-08-31T14:20:19;2.28;;;1.10;;
16320;SDS011;8269;50.990;4.494;2023-08-31T14:22:47;1.73;;;1.10;;
16320;SDS011;8269;50.990;4.494;2023-08-31T14:25:15;2.55;;;1.13;;
16320;SDS011;8269;50.990;4.494;2023-08-31T14:27:46;2.70;;;1.20;;
16320;SDS011;8269;50.990;4.494;2023-08-31T14:30:13;4.10;;;1.17;;
16320;SDS011;8269;50.990;4.494;2023-08-31T14:32:39;3.17;;;1.33;;
16320;SDS011;8269;50.990;4.494;2023-08-31T14:35:05;3.15;;;1.38;;
16320;SDS011;8269;50.990;4.494;2023-08-31T14:37:35;1.73;;;1.08;;
16320;SDS011;8269;50.990;4.494;2023-08-31T14:40:01;2.35;;;1.10;;
16320;SDS011;8269;50.990;4.494;2023-08-31T14:42:28;2.20;;;1.13;;
16320;SDS011;8269;50.990;4.494;2023-08-31T14:44:54;2.03;;;1.00;;
16320;SDS011;8269;50.990;4.494;2023-08-31T14:47:20;3.67;;;1.45;;
16320;SDS011;8269;50.990;4.494;2023-08-31T14:49:45;3.08;;;1.30;;
16320;SDS011;8269;50.990;4.494;2023-08-31T14:52:14;3.50;;;1.65;;
16320;SDS011;8269;50.990;4.494;2023-08-31T14:54:40;3.35;;;1.30;;
16320;SDS011;8269;50.990;4.494;2023-08-31T14:57:05;3.28;;;1.30;;
16320;SDS011;8269;50.990;4.494;2023-08-31T14:59:32;5.00;;;1.83;;
16320;SDS011;8269;50.990;4.494;2023-08-31T15:01:58;3.42;;;1.70;;
16320;SDS011;8269;50.990;4.494;2023-08-31T15:04:28;3.75;;;1.50;;
16320;SDS011;8269;50.990;4.494;2023-08-31T15:06:54;5.40;;;1.77;;
16320;SDS011;8269;50.990;4.494;2023-08-31T15:09:19;3.55;;;1.67;;
16320;SDS011;8269;50.990;4.494;2023-08-31T15:11:45;3.83;;;1.63;;